ADDS TAF Data INFO
IDs: Format: Raw Decoded Include METARs

Data at: 1301 UTC 19 Jan 2018

KPGA 191253Z AUTO 25003KT 10SM CLR 02/M04 A3006 RMK AO2 SLP172 T00171044 TSNO

KPGA 191122Z 1912/2012 VRB06KT P6SM BKN250
  FM200600 18011KT P6SM SCT050 BKN100